sensor_id;sensor_type;location;lat;lon;timestamp;P1;durP1;ratioP1;P2;durP2;ratioP2
974;SDS011;6115;49.296;10.602;2023-03-01T00:04:34;15.57;;;9.43;;
974;SDS011;6115;49.296;10.602;2023-03-01T00:09:36;14.23;;;8.40;;
974;SDS011;6115;49.296;10.602;2023-03-01T00:14:37;16.87;;;9.50;;
974;SDS011;6115;49.296;10.602;2023-03-01T00:19:37;17.10;;;9.70;;
974;SDS011;6115;49.296;10.602;2023-03-01T00:24:38;17.83;;;9.17;;
974;SDS011;6115;49.296;10.602;2023-03-01T00:29:38;15.90;;;8.87;;
974;SDS011;6115;49.296;10.602;2023-03-01T00:34:39;17.30;;;9.73;;
974;SDS011;6115;49.296;10.602;2023-03-01T00:39:40;15.87;;;8.60;;
974;SDS011;6115;49.296;10.602;2023-03-01T00:44:40;17.33;;;9.57;;
974;SDS011;6115;49.296;10.602;2023-03-01T00:49:41;23.67;;;9.83;;
974;SDS011;6115;49.296;10.602;2023-03-01T00:54:41;19.87;;;8.10;;
974;SDS011;6115;49.296;10.602;2023-03-01T00:59:42;16.23;;;10.10;;
974;SDS011;6115;49.296;10.602;2023-03-01T01:04:42;15.03;;;8.07;;
974;SDS011;6115;49.296;10.602;2023-03-01T01:09:43;14.43;;;8.77;;
974;SDS011;6115;49.296;10.602;2023-03-01T01:14:43;14.63;;;8.90;;
974;SDS011;6115;49.296;10.602;2023-03-01T01:19:44;16.53;;;10.07;;
974;SDS011;6115;49.296;10.602;2023-03-01T01:24:45;18.20;;;8.60;;
974;SDS011;6115;49.296;10.602;2023-03-01T01:29:45;23.00;;;9.77;;
974;SDS011;6115;49.296;10.602;2023-03-01T01:34:46;22.80;;;9.40;;
974;SDS011;6115;49.296;10.602;2023-03-01T01:39:46;15.10;;;8.73;;
974;SDS011;6115;49.296;10.602;2023-03-01T01:44:47;15.17;;;8.60;;
974;SDS011;6115;49.296;10.602;2023-03-01T01:55:03;15.27;;;8.83;;
974;SDS011;6115;49.296;10.602;2023-03-01T02:00:22;20.87;;;10.33;;
974;SDS011;6115;49.296;10.602;2023-03-01T02:10:52;15.40;;;8.77;;
974;SDS011;6115;49.296;10.602;2023-03-01T02:15:54;14.03;;;8.60;;
974;SDS011;6115;49.296;10.602;2023-03-01T02:21:01;14.93;;;8.30;;
974;SDS011;6115;49.296;10.602;2023-03-01T02:26:15;17.47;;;9.20;;
974;SDS011;6115;49.296;10.602;2023-03-01T02:31:25;14.87;;;9.30;;
974;SDS011;6115;49.296;10.602;2023-03-01T02:36:45;20.03;;;10.33;;
974;SDS011;6115;49.296;10.602;2023-03-01T02:41:50;17.27;;;10.10;;
974;SDS011;6115;49.296;10.602;2023-03-01T02:46:54;14.10;;;8.70;;
974;SDS011;6115;49.296;10.602;2023-03-01T02:52:01;12.80;;;8.30;;
974;SDS011;6115;49.296;10.602;2023-03-01T02:57:18;21.47;;;10.50;;
974;SDS011;6115;49.296;10.602;2023-03-01T03:02:23;14.20;;;9.20;;
974;SDS011;6115;49.296;10.602;2023-03-01T03:07:37;16.33;;;8.93;;
974;SDS011;6115;49.296;10.602;2023-03-01T03:12:39;21.23;;;9.10;;
974;SDS011;6115;49.296;10.602;2023-03-01T03:17:41;18.87;;;9.13;;
974;SDS011;6115;49.296;10.602;2023-03-01T03:22:42;17.57;;;10.00;;
974;SDS011;6115;49.296;10.602;2023-03-01T03:27:44;19.63;;;9.03;;
974;SDS011;6115;49.296;10.602;2023-03-01T03:32:46;15.60;;;9.03;;
974;SDS011;6115;49.296;10.602;2023-03-01T03:37:53;18.20;;;9.90;;
974;SDS011;6115;49.296;10.602;2023-03-01T03:43:03;19.70;;;9.97;;
974;SDS011;6115;49.296;10.602;2023-03-01T03:48:07;17.53;;;9.80;;
974;SDS011;6115;49.296;10.602;2023-03-01T03:53:10;17.60;;;10.73;;
974;SDS011;6115;49.296;10.602;2023-03-01T03:58:11;19.83;;;9.53;;
974;SDS011;6115;49.296;10.602;2023-03-01T04:03:13;17.20;;;9.97;;
974;SDS011;6115;49.296;10.602;2023-03-01T04:08:14;20.63;;;10.10;;
974;SDS011;6115;49.296;10.602;2023-03-01T04:13:20;16.07;;;8.43;;
974;SDS011;6115;49.296;10.602;2023-03-01T04:18:22;22.60;;;9.53;;
974;SDS011;6115;49.296;10.602;2023-03-01T04:23:24;16.73;;;10.10;;
974;SDS011;6115;49.296;10.602;2023-03-01T04:28:26;21.50;;;10.47;;
974;SDS011;6115;49.296;10.602;2023-03-01T04:33:29;20.03;;;9.20;;
974;SDS011;6115;49.296;10.602;2023-03-01T04:38:29;18.60;;;9.57;;
974;SDS011;6115;49.296;10.602;2023-03-01T04:43:30;14.47;;;9.20;;
974;SDS011;6115;49.296;10.602;2023-03-01T04:48:30;13.03;;;8.10;;
974;SDS011;6115;49.296;10.602;2023-03-01T04:53:32;14.50;;;8.13;;
974;SDS011;6115;49.296;10.602;2023-03-01T04:58:32;18.40;;;9.13;;
974;SDS011;6115;49.296;10.602;2023-03-01T05:03:33;19.50;;;10.07;;
974;SDS011;6115;49.296;10.602;2023-03-01T05:08:34;19.97;;;10.07;;
974;SDS011;6115;49.296;10.602;2023-03-01T05:13:37;15.03;;;8.90;;
974;SDS011;6115;49.296;10.602;2023-03-01T05:18:39;19.10;;;9.30;;
974;SDS011;6115;49.296;10.602;2023-03-01T05:23:40;21.63;;;9.97;;
974;SDS011;6115;49.296;10.602;2023-03-01T05:28:41;15.97;;;9.50;;
974;SDS011;6115;49.296;10.602;2023-03-01T05:33:42;18.27;;;10.23;;
974;SDS011;6115;49.296;10.602;2023-03-01T05:38:43;16.50;;;9.87;;
974;SDS011;6115;49.296;10.602;2023-03-01T05:43:44;19.97;;;10.17;;
974;SDS011;6115;49.296;10.602;2023-03-01T05:48:44;16.63;;;9.70;;
974;SDS011;6115;49.296;10.602;2023-03-01T05:53:45;19.20;;;10.40;;
974;SDS011;6115;49.296;10.602;2023-03-01T05:58:47;24.23;;;10.07;;
974;SDS011;6115;49.296;10.602;2023-03-01T06:03:49;19.80;;;9.10;;
974;SDS011;6115;49.296;10.602;2023-03-01T06:08:50;17.70;;;11.23;;
974;SDS011;6115;49.296;10.602;2023-03-01T06:13:51;18.97;;;8.90;;
974;SDS011;6115;49.296;10.602;2023-03-01T06:18:51;16.83;;;10.50;;
974;SDS011;6115;49.296;10.602;2023-03-01T06:23:52;21.67;;;10.57;;
974;SDS011;6115;49.296;10.602;2023-03-01T06:28:52;21.90;;;10.63;;
974;SDS011;6115;49.296;10.602;2023-03-01T06:33:53;22.10;;;10.73;;
974;SDS011;6115;49.296;10.602;2023-03-01T06:38:54;16.00;;;9.97;;
974;SDS011;6115;49.296;10.602;2023-03-01T06:43:54;18.40;;;8.73;;
974;SDS011;6115;49.296;10.602;2023-03-01T06:48:55;21.17;;;10.90;;
974;SDS011;6115;49.296;10.602;2023-03-01T06:53:55;18.23;;;11.10;;
974;SDS011;6115;49.296;10.602;2023-03-01T06:58:56;19.13;;;10.30;;
974;SDS011;6115;49.296;10.602;2023-03-01T07:03:57;25.43;;;13.17;;
974;SDS011;6115;49.296;10.602;2023-03-01T07:08:57;18.83;;;11.40;;
974;SDS011;6115;49.296;10.602;2023-03-01T07:13:58;19.43;;;11.07;;
974;SDS011;6115;49.296;10.602;2023-03-01T07:18:59;27.60;;;11.80;;
974;SDS011;6115;49.296;10.602;2023-03-01T07:24:00;17.60;;;8.87;;
974;SDS011;6115;49.296;10.602;2023-03-01T07:29:01;31.97;;;12.10;;
974;SDS011;6115;49.296;10.602;2023-03-01T07:34:03;24.50;;;12.83;;
974;SDS011;6115;49.296;10.602;2023-03-01T07:39:04;17.33;;;9.73;;
974;SDS011;6115;49.296;10.602;2023-03-01T07:44:04;20.37;;;12.03;;
974;SDS011;6115;49.296;10.602;2023-03-01T07:49:05;20.80;;;12.37;;
974;SDS011;6115;49.296;10.602;2023-03-01T07:54:06;23.17;;;12.30;;
974;SDS011;6115;49.296;10.602;2023-03-01T07:59:06;20.80;;;10.57;;
974;SDS011;6115;49.296;10.602;2023-03-01T08:04:07;22.33;;;12.73;;
974;SDS011;6115;49.296;10.602;2023-03-01T08:09:08;20.60;;;12.30;;
974;SDS011;6115;49.296;10.602;2023-03-01T08:14:09;20.53;;;11.20;;
974;SDS011;6115;49.296;10.602;2023-03-01T08:19:11;22.83;;;12.50;;
974;SDS011;6115;49.296;10.602;2023-03-01T08:24:12;25.23;;;12.70;;
974;SDS011;6115;49.296;10.602;2023-03-01T08:29:13;21.13;;;10.83;;
974;SDS011;6115;49.296;10.602;2023-03-01T08:34:16;19.77;;;9.97;;
974;SDS011;6115;49.296;10.602;2023-03-01T08:39:18;22.00;;;12.70;;
974;SDS011;6115;49.296;10.602;2023-03-01T08:44:20;22.60;;;12.80;;
974;SDS011;6115;49.296;10.602;2023-03-01T08:49:21;19.67;;;10.83;;
974;SDS011;6115;49.296;10.602;2023-03-01T08:54:21;21.47;;;12.47;;
974;SDS011;6115;49.296;10.602;2023-03-01T08:59:22;21.90;;;13.30;;
974;SDS011;6115;49.296;10.602;2023-03-01T09:04:23;22.63;;;12.80;;
974;SDS011;6115;49.296;10.602;2023-03-01T09:09:23;24.27;;;12.70;;
974;SDS011;6115;49.296;10.602;2023-03-01T09:14:24;24.93;;;15.43;;
974;SDS011;6115;49.296;10.602;2023-03-01T09:19:24;23.10;;;14.50;;
974;SDS011;6115;49.296;10.602;2023-03-01T09:24:25;26.60;;;14.73;;
974;SDS011;6115;49.296;10.602;2023-03-01T09:29:26;23.33;;;15.83;;
974;SDS011;6115;49.296;10.602;2023-03-01T09:34:26;23.30;;;15.27;;
974;SDS011;6115;49.296;10.602;2023-03-01T09:39:27;27.80;;;13.70;;
974;SDS011;6115;49.296;10.602;2023-03-01T09:44:36;19.27;;;13.90;;
974;SDS011;6115;49.296;10.602;2023-03-01T09:49:39;26.57;;;15.33;;
974;SDS011;6115;49.296;10.602;2023-03-01T09:54:49;24.30;;;14.40;;
974;SDS011;6115;49.296;10.602;2023-03-01T10:10:29;21.20;;;16.37;;
974;SDS011;6115;49.296;10.602;2023-03-01T10:15:35;21.23;;;17.10;;
974;SDS011;6115;49.296;10.602;2023-03-01T10:21:07;21.47;;;16.73;;
974;SDS011;6115;49.296;10.602;2023-03-01T10:26:19;21.77;;;17.03;;
974;SDS011;6115;49.296;10.602;2023-03-01T10:31:24;22.47;;;18.47;;
974;SDS011;6115;49.296;10.602;2023-03-01T10:36:28;23.97;;;17.37;;
974;SDS011;6115;49.296;10.602;2023-03-01T10:41:33;24.07;;;17.73;;
974;SDS011;6115;49.296;10.602;2023-03-01T10:46:44;25.30;;;17.57;;
974;SDS011;6115;49.296;10.602;2023-03-01T10:51:46;22.17;;;17.23;;
974;SDS011;6115;49.296;10.602;2023-03-01T10:56:51;24.60;;;16.37;;
974;SDS011;6115;49.296;10.602;2023-03-01T11:07:16;22.17;;;15.40;;
974;SDS011;6115;49.296;10.602;2023-03-01T11:12:17;21.67;;;15.20;;
974;SDS011;6115;49.296;10.602;2023-03-01T11:22:26;23.70;;;15.10;;
974;SDS011;6115;49.296;10.602;2023-03-01T11:27:29;21.43;;;16.23;;
974;SDS011;6115;49.296;10.602;2023-03-01T11:32:38;23.47;;;14.90;;
974;SDS011;6115;49.296;10.602;2023-03-01T11:37:59;30.90;;;17.57;;
974;SDS011;6115;49.296;10.602;2023-03-01T11:55:07;22.30;;;15.73;;
974;SDS011;6115;49.296;10.602;2023-03-01T12:10:26;20.87;;;16.07;;
974;SDS011;6115;49.296;10.602;2023-03-01T12:21:13;19.63;;;14.50;;
974;SDS011;6115;49.296;10.602;2023-03-01T12:26:36;18.87;;;15.87;;
974;SDS011;6115;49.296;10.602;2023-03-01T12:32:06;19.33;;;14.27;;
974;SDS011;6115;49.296;10.602;2023-03-01T12:43:10;18.73;;;13.27;;
974;SDS011;6115;49.296;10.602;2023-03-01T12:53:45;18.63;;;13.60;;
974;SDS011;6115;49.296;10.602;2023-03-01T12:58:54;16.77;;;12.37;;
974;SDS011;6115;49.296;10.602;2023-03-01T13:14:42;16.70;;;12.20;;
974;SDS011;6115;49.296;10.602;2023-03-01T13:19:55;17.93;;;13.57;;
974;SDS011;6115;49.296;10.602;2023-03-01T13:25:01;17.20;;;12.30;;
974;SDS011;6115;49.296;10.602;2023-03-01T13:35:43;20.50;;;13.33;;
974;SDS011;6115;49.296;10.602;2023-03-01T13:45:50;15.57;;;12.03;;
974;SDS011;6115;49.296;10.602;2023-03-01T13:50:57;16.20;;;11.80;;
974;SDS011;6115;49.296;10.602;2023-03-01T13:56:20;17.23;;;12.90;;
974;SDS011;6115;49.296;10.602;2023-03-01T14:06:31;17.20;;;13.50;;
974;SDS011;6115;49.296;10.602;2023-03-01T14:22:24;15.33;;;11.97;;
974;SDS011;6115;49.296;10.602;2023-03-01T14:27:36;13.87;;;10.70;;
974;SDS011;6115;49.296;10.602;2023-03-01T14:32:42;20.80;;;11.87;;
974;SDS011;6115;49.296;10.602;2023-03-01T14:37:42;17.50;;;12.10;;
974;SDS011;6115;49.296;10.602;2023-03-01T14:42:43;19.40;;;12.03;;
974;SDS011;6115;49.296;10.602;2023-03-01T14:47:43;17.00;;;11.30;;
974;SDS011;6115;49.296;10.602;2023-03-01T14:52:46;16.90;;;11.70;;
974;SDS011;6115;49.296;10.602;2023-03-01T14:57:49;18.60;;;11.20;;
974;SDS011;6115;49.296;10.602;2023-03-01T15:02:51;16.30;;;11.10;;
974;SDS011;6115;49.296;10.602;2023-03-01T15:07:53;16.07;;;11.70;;
974;SDS011;6115;49.296;10.602;2023-03-01T15:12:55;16.10;;;10.30;;
974;SDS011;6115;49.296;10.602;2023-03-01T15:17:57;15.53;;;10.60;;
974;SDS011;6115;49.296;10.602;2023-03-01T15:22:59;15.87;;;10.17;;
974;SDS011;6115;49.296;10.602;2023-03-01T15:28:01;16.53;;;11.03;;
974;SDS011;6115;49.296;10.602;2023-03-01T15:38:25;16.30;;;11.37;;
974;SDS011;6115;49.296;10.602;2023-03-01T15:48:44;19.47;;;11.43;;
974;SDS011;6115;49.296;10.602;2023-03-01T15:53:48;13.80;;;9.67;;
974;SDS011;6115;49.296;10.602;2023-03-01T15:58:51;15.10;;;10.57;;
974;SDS011;6115;49.296;10.602;2023-03-01T16:03:52;14.33;;;10.33;;
974;SDS011;6115;49.296;10.602;2023-03-01T16:08:53;17.33;;;12.10;;
974;SDS011;6115;49.296;10.602;2023-03-01T16:13:54;19.20;;;11.30;;
974;SDS011;6115;49.296;10.602;2023-03-01T16:18:54;15.97;;;10.40;;
974;SDS011;6115;49.296;10.602;2023-03-01T16:23:55;18.00;;;11.40;;
974;SDS011;6115;49.296;10.602;2023-03-01T16:28:56;18.30;;;13.67;;
974;SDS011;6115;49.296;10.602;2023-03-01T16:33:58;16.60;;;11.33;;
974;SDS011;6115;49.296;10.602;2023-03-01T16:38:59;16.63;;;11.23;;
974;SDS011;6115;49.296;10.602;2023-03-01T16:44:00;19.10;;;12.90;;
974;SDS011;6115;49.296;10.602;2023-03-01T16:49:01;19.37;;;12.30;;
974;SDS011;6115;49.296;10.602;2023-03-01T16:54:02;23.37;;;11.10;;
974;SDS011;6115;49.296;10.602;2023-03-01T16:59:04;18.80;;;12.33;;
974;SDS011;6115;49.296;10.602;2023-03-01T17:04:05;19.80;;;10.13;;
974;SDS011;6115;49.296;10.602;2023-03-01T17:09:06;17.90;;;10.87;;
974;SDS011;6115;49.296;10.602;2023-03-01T17:14:07;19.40;;;10.73;;
974;SDS011;6115;49.296;10.602;2023-03-01T17:19:08;17.40;;;11.00;;
974;SDS011;6115;49.296;10.602;2023-03-01T17:24:09;25.07;;;13.90;;
974;SDS011;6115;49.296;10.602;2023-03-01T17:29:09;28.10;;;15.27;;
974;SDS011;6115;49.296;10.602;2023-03-01T17:34:10;24.67;;;14.33;;
974;SDS011;6115;49.296;10.602;2023-03-01T17:39:11;22.73;;;14.70;;
974;SDS011;6115;49.296;10.602;2023-03-01T17:44:12;23.93;;;14.80;;
974;SDS011;6115;49.296;10.602;2023-03-01T17:49:12;36.63;;;21.27;;
974;SDS011;6115;49.296;10.602;2023-03-01T17:54:13;28.83;;;16.80;;
974;SDS011;6115;49.296;10.602;2023-03-01T17:59:13;26.87;;;14.60;;
974;SDS011;6115;49.296;10.602;2023-03-01T18:04:16;21.77;;;14.83;;
974;SDS011;6115;49.296;10.602;2023-03-01T18:09:17;19.73;;;12.60;;
974;SDS011;6115;49.296;10.602;2023-03-01T18:14:18;18.90;;;12.23;;
974;SDS011;6115;49.296;10.602;2023-03-01T18:19:18;19.03;;;12.53;;
974;SDS011;6115;49.296;10.602;2023-03-01T18:24:20;20.50;;;13.07;;
974;SDS011;6115;49.296;10.602;2023-03-01T18:29:20;18.30;;;12.23;;
974;SDS011;6115;49.296;10.602;2023-03-01T18:34:21;19.10;;;10.10;;
974;SDS011;6115;49.296;10.602;2023-03-01T18:39:22;21.57;;;12.20;;
974;SDS011;6115;49.296;10.602;2023-03-01T18:44:24;18.00;;;11.60;;
974;SDS011;6115;49.296;10.602;2023-03-01T18:49:25;22.30;;;12.63;;
974;SDS011;6115;49.296;10.602;2023-03-01T18:54:26;21.57;;;11.97;;
974;SDS011;6115;49.296;10.602;2023-03-01T18:59:26;22.57;;;11.90;;
974;SDS011;6115;49.296;10.602;2023-03-01T19:04:29;21.13;;;11.40;;
974;SDS011;6115;49.296;10.602;2023-03-01T19:09:29;22.13;;;13.43;;
974;SDS011;6115;49.296;10.602;2023-03-01T19:14:30;28.00;;;13.90;;
974;SDS011;6115;49.296;10.602;2023-03-01T19:19:30;23.60;;;11.70;;
974;SDS011;6115;49.296;10.602;2023-03-01T19:24:31;22.10;;;11.33;;
974;SDS011;6115;49.296;10.602;2023-03-01T19:29:31;23.20;;;13.30;;
974;SDS011;6115;49.296;10.602;2023-03-01T19:34:32;29.57;;;15.10;;
974;SDS011;6115;49.296;10.602;2023-03-01T19:39:34;28.00;;;15.07;;
974;SDS011;6115;49.296;10.602;2023-03-01T19:44:35;21.20;;;12.37;;
974;SDS011;6115;49.296;10.602;2023-03-01T19:49:37;25.93;;;15.97;;
974;SDS011;6115;49.296;10.602;2023-03-01T19:54:37;22.17;;;13.60;;
974;SDS011;6115;49.296;10.602;2023-03-01T19:59:38;21.30;;;12.60;;
974;SDS011;6115;49.296;10.602;2023-03-01T20:04:38;21.70;;;13.30;;
974;SDS011;6115;49.296;10.602;2023-03-01T20:09:39;27.10;;;13.97;;
974;SDS011;6115;49.296;10.602;2023-03-01T20:14:40;23.37;;;13.00;;
974;SDS011;6115;49.296;10.602;2023-03-01T20:19:41;21.03;;;12.67;;
974;SDS011;6115;49.296;10.602;2023-03-01T20:24:41;22.37;;;13.30;;
974;SDS011;6115;49.296;10.602;2023-03-01T20:29:42;26.87;;;13.13;;
974;SDS011;6115;49.296;10.602;2023-03-01T20:34:44;22.07;;;13.10;;
974;SDS011;6115;49.296;10.602;2023-03-01T20:39:45;24.90;;;13.63;;
974;SDS011;6115;49.296;10.602;2023-03-01T20:44:46;25.70;;;13.77;;
974;SDS011;6115;49.296;10.602;2023-03-01T20:49:48;25.20;;;14.40;;
974;SDS011;6115;49.296;10.602;2023-03-01T20:54:50;23.73;;;14.40;;
974;SDS011;6115;49.296;10.602;2023-03-01T20:59:51;23.43;;;14.23;;
974;SDS011;6115;49.296;10.602;2023-03-01T21:04:52;25.40;;;14.97;;
974;SDS011;6115;49.296;10.602;2023-03-01T21:09:52;24.87;;;13.87;;
974;SDS011;6115;49.296;10.602;2023-03-01T21:14:53;26.47;;;15.40;;
974;SDS011;6115;49.296;10.602;2023-03-01T21:19:53;26.73;;;15.10;;
974;SDS011;6115;49.296;10.602;2023-03-01T21:24:54;30.10;;;16.60;;
974;SDS011;6115;49.296;10.602;2023-03-01T21:29:54;28.53;;;14.60;;
974;SDS011;6115;49.296;10.602;2023-03-01T21:34:55;26.97;;;14.43;;
974;SDS011;6115;49.296;10.602;2023-03-01T21:39:57;25.50;;;14.53;;
974;SDS011;6115;49.296;10.602;2023-03-01T21:44:57;25.60;;;14.27;;
974;SDS011;6115;49.296;10.602;2023-03-01T21:49:58;25.87;;;13.90;;
974;SDS011;6115;49.296;10.602;2023-03-01T21:54:58;26.73;;;14.70;;
974;SDS011;6115;49.296;10.602;2023-03-01T22:00:01;25.50;;;13.90;;
974;SDS011;6115;49.296;10.602;2023-03-01T22:05:03;25.03;;;15.50;;
974;SDS011;6115;49.296;10.602;2023-03-01T22:10:04;28.80;;;16.00;;
974;SDS011;6115;49.296;10.602;2023-03-01T22:15:06;27.57;;;15.40;;
974;SDS011;6115;49.296;10.602;2023-03-01T22:20:07;24.63;;;13.97;;
974;SDS011;6115;49.296;10.602;2023-03-01T22:25:09;23.40;;;15.13;;
974;SDS011;6115;49.296;10.602;2023-03-01T22:30:11;29.77;;;14.33;;
974;SDS011;6115;49.296;10.602;2023-03-01T22:35:12;29.80;;;15.90;;
974;SDS011;6115;49.296;10.602;2023-03-01T22:40:13;30.27;;;15.43;;
974;SDS011;6115;49.296;10.602;2023-03-01T22:45:13;25.00;;;14.27;;
974;SDS011;6115;49.296;10.602;2023-03-01T22:50:14;25.13;;;13.97;;
974;SDS011;6115;49.296;10.602;2023-03-01T22:55:15;26.07;;;13.93;;
974;SDS011;6115;49.296;10.602;2023-03-01T23:00:16;28.63;;;14.83;;
974;SDS011;6115;49.296;10.602;2023-03-01T23:05:17;31.13;;;16.33;;
974;SDS011;6115;49.296;10.602;2023-03-01T23:10:17;26.63;;;14.67;;
974;SDS011;6115;49.296;10.602;2023-03-01T23:15:18;27.53;;;14.17;;
974;SDS011;6115;49.296;10.602;2023-03-01T23:20:18;28.73;;;13.93;;
974;SDS011;6115;49.296;10.602;2023-03-01T23:25:19;28.13;;;13.40;;
974;SDS011;6115;49.296;10.602;2023-03-01T23:30:20;33.50;;;15.10;;
974;SDS011;6115;49.296;10.602;2023-03-01T23:35:21;25.23;;;14.77;;
974;SDS011;6115;49.296;10.602;2023-03-01T23:40:21;23.90;;;13.97;;
974;SDS011;6115;49.296;10.602;2023-03-01T23:45:22;25.87;;;14.03;;
974;SDS011;6115;49.296;10.602;2023-03-01T23:50:23;28.47;;;14.80;;
974;SDS011;6115;49.296;10.602;2023-03-01T23:55:23;27.90;;;14.10;;
